Time;durP1;ratioP1;P1;durP2;ratioP2;P2;SDS_P1;SDS_P2;PMS_P1;PMS_P2;Temp;Humidity;BMP_temperature;BMP_pressure;BME280_temperature;BME280_humidity;BME280_pressure;Samples;Min_cycle;Max_cycle;Signal;HPM_P1;HPM_P2
2021/06/28 00:00:34;;;;;;;;;;;;;;;23.62;53.82;101221.25;2053002;28;4000;-68
2021/06/28 00:02:01;;;;;;;;;;;;;;;23.62;53.84;101222.09;2052402;28;4096;-68
2021/06/28 00:03:28;;;;;;;;;;;;;;;23.62;53.84;101222.09;2053042;28;3853;-70
2021/06/28 00:04:55;;;;;;;;;;;;;;;23.63;53.88;101212.34;2052859;28;4237;-69
2021/06/28 00:06:22;;;;;;;;;;;;;;;23.63;53.93;101223.78;2053909;28;3805;-70
2021/06/28 00:07:48;;;;;;;;;;;;;;;23.62;53.85;101216.38;2052347;28;4252;-69
2021/06/28 00:09:15;;;;;;;;;;;;;;;23.63;53.83;101214.38;2053744;28;4076;-69
2021/06/28 00:10:41;;;;;;;;;;;;;;;23.64;54.00;101218.88;2053300;28;4234;-69
2021/06/28 00:12:06;;;;;;;;;;;;;;;23.64;53.96;101213.19;2053116;28;4095;-68
2021/06/28 00:13:33;;;;;;;;;;;;;;;23.65;53.95;101214.81;2053584;28;3819;-68
2021/06/28 00:15:00;;;;;;;;;;;;;;;23.65;54.05;101217.69;2052022;28;4340;-68
2021/06/28 00:16:26;;;;;;;;;;;;;;;23.65;54.00;101214.81;2054147;28;4087;-68
2021/06/28 00:17:53;;;;;;;;;;;;;;;23.65;54.06;101220.53;2052534;28;4062;-69
2021/06/28 00:19:24;;;;;;;;;;;;;;;23.64;53.98;101219.72;2053484;28;4107;-69
2021/06/28 00:20:50;;;;;;;;;;;;;;;23.65;53.96;101218.50;2053127;28;4083;-69
2021/06/28 00:22:17;;;;;;;;;;;;;;;23.66;54.06;101210.78;2052854;28;4098;-69
2021/06/28 00:23:44;;;;;;;;;;;;;;;23.66;54.03;101219.38;2053352;28;4047;-69
2021/06/28 00:25:10;;;;;;;;;;;;;;;23.65;54.08;101218.50;2052432;28;3832;-68
2021/06/28 00:26:36;;;;;;;;;;;;;;;23.66;54.01;101220.19;2053390;28;3958;-68
2021/06/28 00:28:02;;;;;;;;;;;;;;;23.67;54.02;101224.69;2053654;28;4453;-69
2021/06/28 00:29:29;;;;;;;;;;;;;;;23.67;54.07;101221.00;2053557;28;4008;-68
2021/06/28 00:30:56;;;;;;;;;;;;;;;23.68;54.02;101209.25;2054010;28;4177;-69
2021/06/28 00:32:23;;;;;;;;;;;;;;;23.68;54.15;101214.09;2054374;28;4061;-68
2021/06/28 00:33:49;;;;;;;;;;;;;;;23.68;54.04;101220.66;2053145;28;4296;-68
2021/06/28 00:35:18;;;;;;;;;;;;;;;23.68;54.05;101216.94;2052795;28;3879;-68
2021/06/28 00:36:45;;;;;;;;;;;;;;;23.68;54.17;101214.94;2053052;28;4952;-68
2021/06/28 00:38:10;;;;;;;;;;;;;;;23.68;54.14;101214.09;2061164;28;3978;-69
2021/06/28 00:39:37;;;;;;;;;;;;;;;23.69;54.04;101218.63;2054825;28;4176;-69
2021/06/28 00:41:03;;;;;;;;;;;;;;;23.69;54.08;101219.47;2053414;28;4436;-69
2021/06/28 00:42:30;;;;;;;;;;;;;;;23.68;54.04;101216.94;2053771;28;4121;-68
2021/06/28 00:43:57;;;;;;;;;;;;;;;23.69;54.17;101221.50;2052989;28;4116;-68
2021/06/28 00:45:23;;;;;;;;;;;;;;;23.69;53.87;101218.63;2053739;28;3943;-68
2021/06/28 00:46:49;;;;;;;;;;;;;;;23.69;54.10;101212.91;2051729;28;4237;-68
2021/06/28 00:48:16;;;;;;;;;;;;;;;23.69;54.12;101221.50;2053733;28;3890;-68
2021/06/28 00:49:42;;;;;;;;;;;;;;;23.70;54.06;101220.28;2052309;28;5043;-69
2021/06/28 00:51:08;;;;;;;;;;;;;;;23.70;54.06;101221.13;2053607;28;3817;-68
2021/06/28 00:52:35;;;;;;;;;;;;;;;23.68;54.09;101212.09;2052877;28;4078;-69
2021/06/28 00:54:02;;;;;;;;;;;;;;;23.70;54.07;101209.69;2051637;28;4029;-68
2021/06/28 00:55:27;;;;;;;;;;;;;;;23.70;54.04;101214.56;2053522;28;4426;-68
2021/06/28 00:56:54;;;;;;;;;;;;;;;23.70;54.10;101214.56;2051403;28;4664;-68
2021/06/28 00:58:21;;;;;;;;;;;;;;;23.70;54.13;101206.84;2052964;28;4060;-68
2021/06/28 00:59:47;;;;;;;;;;;;;;;23.70;54.08;101215.41;2053385;28;4060;-69
2021/06/28 01:01:13;;;;;;;;;;;;;;;23.70;54.15;101215.41;2053559;28;4112;-68
2021/06/28 01:02:40;;;;;;;;;;;;;;;23.71;53.95;101213.44;2052495;28;4050;-68
2021/06/28 01:04:07;;;;;;;;;;;;;;;23.71;54.00;101213.44;2052460;28;3906;-68
2021/06/28 01:05:34;;;;;;;;;;;;;;;23.70;54.07;101214.56;2053254;28;3842;-69
2021/06/28 01:07:01;;;;;;;;;;;;;;;23.71;54.11;101219.16;2052535;28;4196;-69
2021/06/28 01:08:28;;;;;;;;;;;;;;;23.71;54.03;101219.97;2053488;28;4034;-68
2021/06/28 01:09:54;;;;;;;;;;;;;;;23.70;54.05;101215.41;2052758;28;4305;-68
2021/06/28 01:11:21;;;;;;;;;;;;;;;23.71;54.04;101219.16;2053109;28;3770;-68
2021/06/28 01:12:46;;;;;;;;;;;;;;;23.70;54.13;101218.25;2052410;28;4093;-69
2021/06/28 01:14:13;;;;;;;;;;;;;;;23.72;54.03;101220.81;2052789;28;3834;-69
2021/06/28 01:15:39;;;;;;;;;;;;;;;23.71;54.06;101219.97;2054259;28;4027;-68
2021/06/28 01:17:07;;;;;;;;;;;;;;;23.71;54.09;101219.16;2051826;28;4255;-69
2021/06/28 01:18:34;;;;;;;;;;;;;;;23.71;54.17;101214.25;2050758;28;3969;-69
2021/06/28 01:20:00;;;;;;;;;;;;;;;23.72;54.19;101218.75;2051910;28;4065;-69
2021/06/28 01:21:26;;;;;;;;;;;;;;;23.73;54.18;101219.59;2052262;28;4082;-68
2021/06/28 01:22:53;;;;;;;;;;;;;;;23.73;54.25;101223.28;2052951;28;5149;-69
2021/06/28 01:24:20;;;;;;;;;;;;;;;23.73;54.30;101223.28;2053344;28;3990;-68
2021/06/28 01:25:47;;;;;;;;;;;;;;;23.73;54.42;101217.56;2052714;28;4091;-67
2021/06/28 01:27:13;;;;;;;;;;;;;;;23.72;54.39;101220.81;2051088;28;4059;-69
2021/06/28 01:28:40;;;;;;;;;;;;;;;23.73;54.36;101220.41;2050609;28;4258;-69
2021/06/28 01:30:07;;;;;;;;;;;;;;;23.73;54.47;101216.72;2049958;28;3795;-68
2021/06/28 01:31:34;;;;;;;;;;;;;;;23.74;54.47;101216.38;2050333;28;3909;-72
2021/06/28 01:33:01;;;;;;;;;;;;;;;23.75;54.50;101217.22;2051603;28;4246;-71
2021/06/28 01:34:28;;;;;;;;;;;;;;;23.75;54.53;101215.19;2052617;28;4082;-71
2021/06/28 01:35:53;;;;;;;;;;;;;;;23.75;54.52;101220.06;2051836;28;4057;-68
2021/06/28 01:37:20;;;;;;;;;;;;;;;23.73;54.26;101216.72;2053505;28;3906;-69
2021/06/28 01:38:48;;;;;;;;;;;;;;;23.66;54.00;101216.50;2052033;28;4237;-68
2021/06/28 01:40:15;;;;;;;;;;;;;;;23.58;53.58;101221.16;2051922;28;3919;-70
2021/06/28 01:41:40;;;;;;;;;;;;;;;23.53;53.41;101218.56;2052732;28;4204;-69
2021/06/28 01:43:07;;;;;;;;;;;;;;;23.49;53.24;101214.78;2052112;28;4114;-69
2021/06/28 01:44:33;;;;;;;;;;;;;;;23.48;53.27;101207.38;2053299;28;4238;-70
2021/06/28 01:45:59;;;;;;;;;;;;;;;23.44;52.85;101209.31;2051897;28;4248;-68
2021/06/28 01:47:25;;;;;;;;;;;;;;;23.42;52.80;101209.66;2053316;28;3829;-68
2021/06/28 01:48:52;;;;;;;;;;;;;;;23.40;52.74;101214.06;2051006;28;4230;-69
2021/06/28 01:50:19;;;;;;;;;;;;;;;23.39;52.56;101212.41;2053534;28;3805;-68
2021/06/28 01:51:46;;;;;;;;;;;;;;;23.36;52.44;101213.97;2052427;28;4028;-69
2021/06/28 01:53:11;;;;;;;;;;;;;;;23.33;52.06;101214.69;2053354;28;4074;-73
2021/06/28 01:54:38;;;;;;;;;;;;;;;23.28;51.83;101218.59;2058725;28;4171;-74
2021/06/28 01:56:05;;;;;;;;;;;;;;;23.23;51.55;101223.72;2054263;28;4053;-74
2021/06/28 01:57:31;;;;;;;;;;;;;;;23.20;51.54;101219.56;2051076;28;4038;-74
2021/06/28 01:58:57;;;;;;;;;;;;;;;23.19;51.48;101208.53;2052303;28;4052;-68
2021/06/28 02:00:24;;;;;;;;;;;;;;;23.16;51.52;101204.38;2052840;28;4030;-70
2021/06/28 02:01:51;;;;;;;;;;;;;;;23.18;51.49;101219.09;2052382;28;4345;-69
2021/06/28 02:03:17;;;;;;;;;;;;;;;23.17;51.43;101213.75;2052569;28;4381;-69
2021/06/28 02:04:43;;;;;;;;;;;;;;;23.16;51.39;101212.06;2052444;28;4058;-69
2021/06/28 02:06:09;;;;;;;;;;;;;;;23.15;51.28;101214.09;2052940;28;3835;-69
2021/06/28 02:07:36;;;;;;;;;;;;;;;23.11;51.09;101208.28;2053487;28;4069;-70
2021/06/28 02:09:02;;;;;;;;;;;;;;;23.11;51.25;101213.16;2052497;28;5109;-71
2021/06/28 02:10:29;;;;;;;;;;;;;;;23.10;51.23;101209.50;2051761;28;3910;-71
2021/06/28 02:11:55;;;;;;;;;;;;;;;23.08;51.20;101211.88;2052675;28;4045;-70
2021/06/28 02:13:22;;;;;;;;;;;;;;;23.08;51.25;101214.72;2052467;28;4088;-69
2021/06/28 02:14:48;;;;;;;;;;;;;;;23.07;51.34;101215.06;2052383;28;4175;-68
2021/06/28 02:16:15;;;;;;;;;;;;;;;23.04;51.18;101210.06;2052621;28;3959;-68
2021/06/28 02:17:42;;;;;;;;;;;;;;;23.03;51.30;101209.25;2052895;28;4453;-68
2021/06/28 02:19:08;;;;;;;;;;;;;;;23.03;51.42;101202.72;2052935;28;4437;-69
2021/06/28 02:20:33;;;;;;;;;;;;;;;23.03;51.32;101205.56;2052458;28;3965;-73
2021/06/28 02:22:00;;;;;;;;;;;;;;;23.02;51.23;101201.03;2052672;28;4073;-71
2021/06/28 02:23:26;;;;;;;;;;;;;;;23.01;51.34;101202.22;2052197;28;3932;-71
2021/06/28 02:24:53;;;;;;;;;;;;;;;22.99;51.28;101205.47;2052444;28;4206;-71
2021/06/28 02:26:20;;;;;;;;;;;;;;;22.99;51.38;101201.75;2052708;28;3947;-72
2021/06/28 02:27:46;;;;;;;;;;;;;;;22.98;51.46;101203.78;2052402;28;4210;-70
2021/06/28 02:29:13;;;;;;;;;;;;;;;22.97;51.28;101198.44;2051456;28;4017;-73
2021/06/28 02:30:40;;;;;;;;;;;;;;;22.96;51.32;101199.63;2051788;28;4070;-72
2021/06/28 02:32:07;;;;;;;;;;;;;;;22.94;51.28;101199.97;2052475;28;4105;-72
2021/06/28 02:33:33;;;;;;;;;;;;;;;22.93;51.17;101195.41;2052613;28;3843;-71
2021/06/28 02:35:00;;;;;;;;;;;;;;;22.90;51.19;101196.97;2053101;28;4266;-71
2021/06/28 02:36:26;;;;;;;;;;;;;;;22.86;51.21;101195.22;2053813;28;4022;-72
2021/06/28 02:37:52;;;;;;;;;;;;;;;22.85;51.19;101191.53;2053032;28;4229;-70
2021/06/28 02:39:19;;;;;;;;;;;;;;;22.85;51.30;101190.66;2052642;28;4106;-71
2021/06/28 02:40:46;;;;;;;;;;;;;;;22.84;51.21;101189.03;2052504;28;4049;-70
2021/06/28 02:42:13;;;;;;;;;;;;;;;22.82;51.09;101183.66;2053083;28;3969;-70
2021/06/28 02:43:39;;;;;;;;;;;;;;;22.81;51.24;101181.19;2052902;28;4215;-70
2021/06/28 02:45:06;;;;;;;;;;;;;;;22.81;51.25;101182.00;2052312;28;4001;-70
2021/06/28 02:46:33;;;;;;;;;;;;;;;22.81;51.33;101192.59;2053471;28;3920;-69
2021/06/28 02:47:59;;;;;;;;;;;;;;;22.79;51.25;101184.38;2051627;28;4252;-69
2021/06/28 02:49:25;;;;;;;;;;;;;;;22.78;51.24;101188.44;2052870;28;4171;-70
2021/06/28 02:50:52;;;;;;;;;;;;;;;22.78;51.30;101181.91;2050998;28;4065;-72
2021/06/28 02:52:19;;;;;;;;;;;;;;;22.75;51.23;101180.59;2052162;28;4085;-72
2021/06/28 02:53:46;;;;;;;;;;;;;;;22.73;51.21;101180.09;2051524;28;4043;-73
2021/06/28 02:55:13;;;;;;;;;;;;;;;22.72;51.08;101183.31;2052488;28;3938;-73
2021/06/28 02:56:40;;;;;;;;;;;;;;;22.71;51.24;101168.22;2052419;28;4228;-74
2021/06/28 02:58:07;;;;;;;;;;;;;;;22.70;51.23;101169.41;2052622;28;4094;-74
2021/06/28 02:59:32;;;;;;;;;;;;;;;22.70;51.35;101174.28;2052670;28;3936;-74
2021/06/28 03:01:00;;;;;;;;;;;;;;;22.68;51.29;101169.75;2050061;28;4259;-73
2021/06/28 03:02:27;;;;;;;;;;;;;;;22.68;51.26;101174.63;2051590;28;3804;-75
2021/06/28 03:03:54;;;;;;;;;;;;;;;22.66;51.19;101175.00;2052838;28;4192;-74
2021/06/28 03:05:21;;;;;;;;;;;;;;;22.65;51.28;101172.50;2052386;28;4139;-76
2021/06/28 03:06:46;;;;;;;;;;;;;;;22.65;51.21;101166.78;2052627;28;4200;-75
2021/06/28 03:08:13;;;;;;;;;;;;;;;22.64;51.38;101171.66;2052952;28;4103;-76
2021/06/28 03:09:47;;;;;;;;;;;;;;;22.64;51.27;101170.84;2043698;28;4273;-74
2021/06/28 03:11:31;;;;;;;;;;;;;;;22.62;51.37;101176.88;2047037;28;4036;-75
2021/06/28 03:12:57;;;;;;;;;;;;;;;22.60;51.28;101175.56;2052309;28;4245;-76
2021/06/28 03:14:24;;;;;;;;;;;;;;;22.59;51.33;101180.47;2051922;28;3982;-75
2021/06/28 03:15:49;;;;;;;;;;;;;;;22.59;51.53;101183.31;2051696;28;4252;-76
2021/06/28 03:17:15;;;;;;;;;;;;;;;22.58;51.64;101186.53;2051019;28;3969;-76
2021/06/28 03:18:41;;;;;;;;;;;;;;;22.57;51.61;101182.81;2051663;28;4240;-75
2021/06/28 03:20:07;;;;;;;;;;;;;;;22.56;51.62;101186.88;2051793;28;4174;-75
2021/06/28 03:21:35;;;;;;;;;;;;;;;22.54;51.55;101182.72;2051470;28;3867;-69
2021/06/28 03:23:01;;;;;;;;;;;;;;;22.53;51.50;101181.88;2051704;28;4068;-72
2021/06/28 03:24:27;;;;;;;;;;;;;;;22.53;51.47;101186.75;2052007;28;4815;-72
2021/06/28 03:25:54;;;;;;;;;;;;;;;22.53;51.59;101186.75;2051227;28;4221;-72
2021/06/28 03:27:22;;;;;;;;;;;;;;;22.53;51.50;101181.88;2051354;28;4121;-69
2021/06/28 03:28:48;;;;;;;;;;;;;;;22.52;51.61;101180.19;2050538;28;4225;-71
2021/06/28 03:30:15;;;;;;;;;;;;;;;22.52;51.60;101185.06;2051718;28;4084;-71
2021/06/28 03:31:42;;;;;;;;;;;;;;;22.55;51.70;101190.94;2052152;28;4215;-72
2021/06/28 03:33:08;;;;;;;;;;;;;;;22.59;51.52;101185.34;2051998;28;3998;-71
2021/06/28 03:34:34;;;;;;;;;;;;;;;22.62;51.57;101193.19;2052133;28;4064;-70
2021/06/28 03:36:01;;;;;;;;;;;;;;;22.64;51.60;101191.63;2051101;28;4027;-72
2021/06/28 03:37:28;;;;;;;;;;;;;;;22.67;51.77;101190.91;2052517;28;4084;-71
2021/06/28 03:38:54;;;;;;;;;;;;;;;22.71;51.72;101193.06;2052497;28;4254;-71
2021/06/28 03:40:20;;;;;;;;;;;;;;;22.72;51.76;101189.03;2057975;28;3907;-71
2021/06/28 03:41:46;;;;;;;;;;;;;;;22.73;51.73;101185.81;2051904;28;4211;-71
2021/06/28 03:43:13;;;;;;;;;;;;;;;22.74;51.57;101192.34;2052516;28;4097;-70
2021/06/28 03:44:40;;;;;;;;;;;;;;;22.75;51.70;101188.31;2053317;28;4078;-72
2021/06/28 03:46:07;;;;;;;;;;;;;;;22.76;51.71;101190.78;2053981;28;4095;-72
2021/06/28 03:47:33;;;;;;;;;;;;;;;22.77;51.67;101189.63;2053308;28;3895;-71
2021/06/28 03:48:59;;;;;;;;;;;;;;;22.78;51.64;101188.44;2053625;28;4244;-71
2021/06/28 03:50:26;;;;;;;;;;;;;;;22.80;51.74;101188.06;2053742;28;4040;-71
2021/06/28 03:51:54;;;;;;;;;;;;;;;22.80;51.83;101182.34;2053447;28;4182;-72
2021/06/28 03:53:21;;;;;;;;;;;;;;;22.81;51.84;101187.72;2053502;28;4023;-72
2021/06/28 03:54:47;;;;;;;;;;;;;;;22.82;51.70;101194.25;2052931;28;4418;-72
2021/06/28 03:56:14;;;;;;;;;;;;;;;22.83;51.86;101190.22;2053179;28;3939;-72
2021/06/28 03:57:40;;;;;;;;;;;;;;;22.83;51.88;101190.22;2052877;28;5123;-71
2021/06/28 03:59:06;;;;;;;;;;;;;;;22.84;51.83;101191.88;2053740;28;3955;-72
2021/06/28 04:00:33;;;;;;;;;;;;;;;22.86;51.96;101195.22;2052637;28;4020;-72
2021/06/28 04:01:59;;;;;;;;;;;;;;;22.85;51.79;101202.09;2052954;28;4028;-72
2021/06/28 04:03:28;;;;;;;;;;;;;;;22.86;51.82;101195.22;2053353;28;4229;-73
2021/06/28 04:04:55;;;;;;;;;;;;;;;22.88;51.94;101198.50;2053137;28;4042;-72
2021/06/28 04:06:23;;;;;;;;;;;;;;;22.90;51.83;101199.00;2053523;28;4021;-72
2021/06/28 04:07:50;;;;;;;;;;;;;;;22.89;51.81;101200.19;2053174;28;4277;-72
2021/06/28 04:09:16;;;;;;;;;;;;;;;22.91;52.01;101197.81;2054297;28;3901;-72
2021/06/28 04:10:43;;;;;;;;;;;;;;;22.91;51.99;101206.38;2053693;28;4064;-72
2021/06/28 04:12:09;;;;;;;;;;;;;;;22.91;52.03;101197.81;2053479;28;4198;-72
2021/06/28 04:13:36;;;;;;;;;;;;;;;22.92;51.91;101202.34;2054128;28;4060;-72
2021/06/28 04:15:02;;;;;;;;;;;;;;;22.93;51.94;101209.69;2053312;28;4038;-72
2021/06/28 04:16:29;;;;;;;;;;;;;;;22.93;52.01;101198.28;2052961;28;3989;-73
2021/06/28 04:17:56;;;;;;;;;;;;;;;22.95;51.99;101204.47;2052050;28;4282;-72
2021/06/28 04:19:23;;;;;;;;;;;;;;;22.96;51.94;101211.03;2053090;28;3936;-72
2021/06/28 04:20:50;;;;;;;;;;;;;;;22.97;51.98;101215.56;2052058;28;4179;-72
2021/06/28 04:22:17;;;;;;;;;;;;;;;22.97;52.17;101201.31;2053520;28;4066;-74
2021/06/28 04:23:44;;;;;;;;;;;;;;;22.96;52.06;101202.47;2054219;28;4077;-73
2021/06/28 04:25:10;;;;;;;;;;;;;;;22.99;52.13;101208.31;2053263;28;4267;-73
2021/06/28 04:26:36;;;;;;;;;;;;;;;22.99;52.23;101207.47;2053140;28;4133;-72
2021/06/28 04:28:02;;;;;;;;;;;;;;;23.00;52.17;101209.97;2054526;28;4076;-73
2021/06/28 04:29:29;;;;;;;;;;;;;;;23.00;52.03;101207.13;2053949;28;3958;-73
2021/06/28 04:30:55;;;;;;;;;;;;;;;23.00;52.18;101207.13;2052020;28;4275;-73
2021/06/28 04:32:21;;;;;;;;;;;;;;;23.01;52.18;101207.94;2053648;28;3912;-73
2021/06/28 04:33:48;;;;;;;;;;;;;;;23.02;52.22;101206.75;2052682;28;4066;-73
2021/06/28 04:35:16;;;;;;;;;;;;;;;23.03;52.22;101212.09;2053660;28;3953;-73
2021/06/28 04:36:42;;;;;;;;;;;;;;;23.03;52.12;101211.28;2052475;28;4040;-73
2021/06/28 04:38:09;;;;;;;;;;;;;;;23.03;52.18;101214.97;2053245;28;4064;-74
2021/06/28 04:39:37;;;;;;;;;;;;;;;23.05;52.25;101220.31;2053171;28;4147;-72
2021/06/28 04:41:03;;;;;;;;;;;;;;;23.05;52.38;101214.63;2053071;28;3912;-73
2021/06/28 04:42:30;;;;;;;;;;;;;;;23.05;52.26;101221.16;2054178;28;4029;-73
2021/06/28 04:43:56;;;;;;;;;;;;;;;23.06;52.21;101219.94;2053613;28;4089;-73
2021/06/28 04:45:22;;;;;;;;;;;;;;;23.06;52.25;101211.38;2053564;28;3922;-73
2021/06/28 04:46:48;;;;;;;;;;;;;;;23.07;52.31;101210.22;2050260;28;4230;-73
2021/06/28 04:48:15;;;;;;;;;;;;;;;23.08;52.31;101217.56;2053733;28;4094;-72
2021/06/28 04:49:42;;;;;;;;;;;;;;;23.09;52.46;101216.38;2053765;28;4061;-74
2021/06/28 04:51:08;;;;;;;;;;;;;;;23.09;52.36;101213.53;2054453;28;3963;-75
2021/06/28 04:52:35;;;;;;;;;;;;;;;23.10;52.46;101215.19;2053080;28;4091;-76
2021/06/28 04:54:01;;;;;;;;;;;;;;;23.10;52.53;101209.50;2052491;28;4093;-76
2021/06/28 04:55:27;;;;;;;;;;;;;;;23.11;52.68;101214.00;2053667;28;4076;-75
2021/06/28 04:56:53;;;;;;;;;;;;;;;23.11;52.48;101208.28;2050725;28;4045;-76
2021/06/28 04:58:19;;;;;;;;;;;;;;;23.11;52.53;101208.28;2052910;28;4089;-76
2021/06/28 04:59:46;;;;;;;;;;;;;;;23.12;52.57;101212.78;2051661;28;4227;-74
2021/06/28 05:01:13;;;;;;;;;;;;;;;23.13;52.63;101213.66;2053262;28;4170;-74
2021/06/28 05:02:40;;;;;;;;;;;;;;;23.13;52.57;101205.09;2052814;28;4270;-73
2021/06/28 05:04:06;;;;;;;;;;;;;;;23.14;52.63;101205.91;2053614;28;4091;-72
2021/06/28 05:05:32;;;;;;;;;;;;;;;23.14;52.69;101200.22;2053003;28;4040;-74
2021/06/28 05:06:59;;;;;;;;;;;;;;;23.15;52.65;101199.00;2052492;28;4072;-75
2021/06/28 05:08:25;;;;;;;;;;;;;;;23.15;52.73;101196.97;2052631;28;4080;-74
2021/06/28 05:09:54;;;;;;;;;;;;;;;23.15;52.74;101196.97;2051352;28;4225;-75
2021/06/28 05:11:20;;;;;;;;;;;;;;;23.17;52.68;101194.59;2052897;28;3901;-74
2021/06/28 05:12:46;;;;;;;;;;;;;;;23.17;52.86;101194.59;2051452;28;4188;-75
2021/06/28 05:14:14;;;;;;;;;;;;;;;23.18;52.81;101195.44;2052265;28;4074;-74
2021/06/28 05:15:40;;;;;;;;;;;;;;;23.18;52.85;101193.41;2053398;28;4177;-75
2021/06/28 05:17:08;;;;;;;;;;;;;;;23.19;52.80;101197.94;2053425;28;3986;-74
2021/06/28 05:18:34;;;;;;;;;;;;;;;23.19;52.85;101194.25;2053145;28;4022;-75
2021/06/28 05:20:00;;;;;;;;;;;;;;;23.19;52.90;101192.22;2052439;28;4351;-74
2021/06/28 05:21:26;;;;;;;;;;;;;;;23.21;52.92;101194.72;2053351;28;4147;-74
2021/06/28 05:22:52;;;;;;;;;;;;;;;23.20;52.93;101193.88;2053406;28;4243;-75
2021/06/28 05:24:18;;;;;;;;;;;;;;;23.22;52.99;101193.53;2051767;28;4075;-75
2021/06/28 05:25:45;;;;;;;;;;;;;;;23.21;52.91;101189.84;2052165;28;4072;-74
2021/06/28 05:27:11;;;;;;;;;;;;;;;23.22;52.99;101190.69;2052682;28;3882;-72
2021/06/28 05:28:38;;;;;;;;;;;;;;;23.22;53.05;101188.66;2052989;28;4040;-72
2021/06/28 05:30:05;;;;;;;;;;;;;;;23.24;53.10;101188.28;2053478;28;4009;-72
2021/06/28 05:31:31;;;;;;;;;;;;;;;23.23;53.10;101187.44;2054099;28;3956;-71
2021/06/28 05:32:58;;;;;;;;;;;;;;;23.22;53.03;101184.97;2050397;28;4206;-72
2021/06/28 05:34:26;;;;;;;;;;;;;;;23.24;53.05;101191.13;2049311;28;4108;-72
2021/06/28 05:35:53;;;;;;;;;;;;;;;23.25;53.08;101189.97;2051196;28;4064;-72
2021/06/28 05:37:19;;;;;;;;;;;;;;;23.24;53.07;101194.84;2052485;28;4101;-73
2021/06/28 05:38:45;;;;;;;;;;;;;;;23.25;53.02;101195.66;2051186;28;4042;-70
2021/06/28 05:40:11;;;;;;;;;;;;;;;23.25;53.20;101202.19;2051346;28;4109;-72
2021/06/28 05:41:37;;;;;;;;;;;;;;;23.27;53.13;101193.28;2051407;28;4023;-71
2021/06/28 05:43:04;;;;;;;;;;;;;;;23.26;53.16;101192.44;2049244;28;4125;-71
2021/06/28 05:44:30;;;;;;;;;;;;;;;23.26;53.13;101191.63;2048742;28;3884;-71
2021/06/28 05:45:58;;;;;;;;;;;;;;;23.27;53.23;101196.16;2046483;28;4161;-72
2021/06/28 05:47:25;;;;;;;;;;;;;;;23.27;53.19;101191.25;2051135;28;4130;-71
2021/06/28 05:48:51;;;;;;;;;;;;;;;23.28;53.26;101189.22;2052497;28;4217;-71
2021/06/28 05:50:18;;;;;;;;;;;;;;;23.27;53.33;101177.00;2052325;28;4050;-71
2021/06/28 05:51:46;;;;;;;;;;;;;;;23.29;53.29;101188.03;2052063;28;4217;-72
2021/06/28 05:53:12;;;;;;;;;;;;;;;23.29;53.34;101188.03;2051478;28;4088;-71
2021/06/28 05:54:39;;;;;;;;;;;;;;;23.29;53.31;101179.47;2051566;28;4093;-71
2021/06/28 05:56:07;;;;;;;;;;;;;;;23.28;53.42;101178.66;2051989;28;4126;-71
2021/06/28 05:57:33;;;;;;;;;;;;;;;23.30;53.29;101186.84;2051456;28;3882;-71
2021/06/28 05:59:00;;;;;;;;;;;;;;;23.29;53.38;101188.03;2052231;28;4247;-71
2021/06/28 06:00:27;;;;;;;;;;;;;;;23.30;53.28;101184.84;2050555;28;3972;-71
2021/06/28 06:01:54;;;;;;;;;;;;;;;23.30;53.46;101186.84;2051455;28;4232;-72
2021/06/28 06:03:21;;;;;;;;;;;;;;;23.31;53.49;101188.50;2051701;28;4113;-73
2021/06/28 06:04:49;;;;;;;;;;;;;;;23.32;53.48;101195.88;2051976;28;4089;-72
2021/06/28 06:06:15;;;;;;;;;;;;;;;23.32;53.60;101198.72;2051478;28;3882;-73
2021/06/28 06:07:41;;;;;;;;;;;;;;;23.32;53.62;101193.88;2052024;28;4029;-72
2021/06/28 06:09:07;;;;;;;;;;;;;;;23.33;53.60;101197.56;2052518;28;4190;-73
2021/06/28 06:10:34;;;;;;;;;;;;;;;23.32;53.53;101196.72;2052976;28;4086;-72
2021/06/28 06:12:00;;;;;;;;;;;;;;;23.33;53.55;101194.69;2052032;28;4241;-73
2021/06/28 06:13:27;;;;;;;;;;;;;;;23.34;53.71;101199.22;2052843;28;4099;-72
2021/06/28 06:14:54;;;;;;;;;;;;;;;23.34;53.67;101196.34;2051418;28;4205;-72
2021/06/28 06:16:20;;;;;;;;;;;;;;;23.33;53.72;101195.53;2053019;28;4072;-72
2021/06/28 06:17:46;;;;;;;;;;;;;;;23.34;53.63;101194.31;2051672;28;5043;-71
2021/06/28 06:19:18;;;;;;;;;;;;;;;23.34;53.69;101197.19;2051747;28;4147;-71
2021/06/28 06:20:44;;;;;;;;;;;;;;;23.34;53.63;101200.03;2052190;28;4232;-71
2021/06/28 06:22:11;;;;;;;;;;;;;;;23.35;53.68;101198.03;2052405;28;3937;-71
2021/06/28 06:23:37;;;;;;;;;;;;;;;23.36;53.62;101207.44;2049941;28;4396;-71
2021/06/28 06:25:03;;;;;;;;;;;;;;;23.35;53.73;101198.03;2051171;28;4111;-71
2021/06/28 06:26:29;;;;;;;;;;;;;;;23.36;53.61;101207.44;2052585;28;3881;-71
2021/06/28 06:27:55;;;;;;;;;;;;;;;23.35;53.64;101206.59;2051380;28;4232;-71
2021/06/28 06:29:21;;;;;;;;;;;;;;;23.34;53.69;101204.91;2049176;28;3900;-71
2021/06/28 06:30:48;;;;;;;;;;;;;;;23.36;53.60;101199.69;2051776;28;4259;-71
2021/06/28 06:32:14;;;;;;;;;;;;;;;23.36;53.63;101208.25;2052211;28;3926;-73
2021/06/28 06:33:41;;;;;;;;;;;;;;;23.37;53.67;101203.38;2052018;28;4320;-73
2021/06/28 06:35:07;;;;;;;;;;;;;;;23.36;53.79;101199.69;2051022;28;4036;-73
2021/06/28 06:36:34;;;;;;;;;;;;;;;23.37;53.76;101197.66;2052058;28;3952;-75
2021/06/28 06:38:01;;;;;;;;;;;;;;;23.37;53.82;101192.78;2050918;28;4460;-75
2021/06/28 06:39:28;;;;;;;;;;;;;;;23.38;53.83;101202.16;2052590;28;3896;-74
2021/06/28 06:40:54;;;;;;;;;;;;;;;23.38;53.78;101200.16;2052626;28;4057;-74
2021/06/28 06:42:20;;;;;;;;;;;;;;;23.39;53.85;101206.69;2052581;28;3909;-74
2021/06/28 06:43:46;;;;;;;;;;;;;;;23.38;53.77;101203.03;2051970;28;4257;-75
2021/06/28 06:45:13;;;;;;;;;;;;;;;23.39;53.88;101206.69;2051011;28;4110;-74
2021/06/28 06:46:39;;;;;;;;;;;;;;;23.39;53.90;101212.41;2051213;28;4387;-74
2021/06/28 06:48:06;;;;;;;;;;;;;;;23.40;53.87;101205.50;2052902;28;4107;-74
2021/06/28 06:49:33;;;;;;;;;;;;;;;23.41;53.90;101215.75;2052478;28;4082;-74
2021/06/28 06:50:59;;;;;;;;;;;;;;;23.40;53.83;101212.03;2052118;28;4274;-75
2021/06/28 06:52:26;;;;;;;;;;;;;;;23.40;53.82;101214.88;2051711;28;4215;-74
2021/06/28 06:53:52;;;;;;;;;;;;;;;23.40;53.89;101216.91;2050594;28;4241;-77
2021/06/28 06:55:19;;;;;;;;;;;;;;;23.40;53.90;101208.34;2051272;28;4094;-78
2021/06/28 06:56:45;;;;;;;;;;;;;;;23.40;53.94;101212.03;2051030;28;4317;-76
2021/06/28 06:58:12;;;;;;;;;;;;;;;23.41;53.82;101210.88;2051827;28;4178;-77
2021/06/28 06:59:38;;;;;;;;;;;;;;;23.42;53.87;101211.69;2051392;28;4457;-75
2021/06/28 07:01:04;;;;;;;;;;;;;;;23.42;53.88;101218.22;2051588;28;4110;-78
2021/06/28 07:02:30;;;;;;;;;;;;;;;23.42;53.92;101220.25;2051311;28;4084;-74
2021/06/28 07:03:57;;;;;;;;;;;;;;;23.41;53.86;101213.72;2051620;28;4220;-74
2021/06/28 07:05:23;;;;;;;;;;;;;;;23.42;53.90;101217.41;2052697;28;3903;-74
2021/06/28 07:06:49;;;;;;;;;;;;;;;23.42;53.84;101226.78;2051720;28;4260;-74
2021/06/28 07:08:16;;;;;;;;;;;;;;;23.42;53.85;101223.09;2052752;28;4082;-74
2021/06/28 07:09:45;;;;;;;;;;;;;;;23.43;53.91;101224.75;2051192;28;4195;-74
2021/06/28 07:11:11;;;;;;;;;;;;;;;23.42;53.97;101223.94;2051911;28;4016;-79
2021/06/28 07:12:38;;;;;;;;;;;;;;;23.42;53.89;101218.22;2050815;28;4953;-73
2021/06/28 07:14:04;;;;;;;;;;;;;;;23.42;53.91;101223.94;2051870;28;4232;-74
2021/06/28 07:15:31;;;;;;;;;;;;;;;23.44;53.96;101226.44;2052213;28;4153;-74
2021/06/28 07:16:57;;;;;;;;;;;;;;;23.43;53.91;101224.75;2051662;28;4032;-73
2021/06/28 07:18:24;;;;;;;;;;;;;;;23.44;53.87;101229.31;2053817;28;3917;-74
2021/06/28 07:19:50;;;;;;;;;;;;;;;23.44;53.83;101226.44;2053677;28;4351;-74
2021/06/28 07:21:16;;;;;;;;;;;;;;;23.44;53.96;101221.56;2053385;28;4080;-73
2021/06/28 07:22:42;;;;;;;;;;;;;;;23.44;53.87;101221.56;2053493;28;4447;-74
2021/06/28 07:24:09;;;;;;;;;;;;;;;23.44;53.85;101224.41;2053863;28;4070;-73
2021/06/28 07:25:35;;;;;;;;;;;;;;;23.44;53.96;101221.56;2053546;28;3972;-73
2021/06/28 07:27:02;;;;;;;;;;;;;;;23.45;54.02;101219.53;2053568;28;4046;-73
2021/06/28 07:28:29;;;;;;;;;;;;;;;23.45;53.91;101228.91;2052126;28;5042;-74
2021/06/28 07:29:55;;;;;;;;;;;;;;;23.45;53.98;101223.22;2053155;28;4212;-73
2021/06/28 07:31:21;;;;;;;;;;;;;;;23.46;53.88;101219.19;2053674;28;4080;-74